createdAt,value
2022-08-14T00:00:46.507Z,5.70
2022-08-14T00:03:29.166Z,5.40
2022-08-14T00:06:01.536Z,5.90
2022-08-14T00:08:44.889Z,5.72
2022-08-14T00:11:03.976Z,4.95
2022-08-14T00:13:37.560Z,5.70
2022-08-14T00:16:08.334Z,5.85
2022-08-14T00:19:05.507Z,5.90
2022-08-14T00:21:11.610Z,5.87
2022-08-14T00:23:43.197Z,5.92
2022-08-14T00:26:23.028Z,5.75
2022-08-14T00:28:46.138Z,6.53
2022-08-14T00:31:17.361Z,5.62
2022-08-14T00:33:50.989Z,6.25
2022-08-14T00:36:36.496Z,6.03
2022-08-14T00:38:56.574Z,6.72
2022-08-14T00:41:33.457Z,5.78
2022-08-14T00:44:08.145Z,6.37
2022-08-14T00:46:45.175Z,6.72
2022-08-14T00:49:14.978Z,6.25
2022-08-14T00:51:45.582Z,6.97
2022-08-14T00:54:21.987Z,6.33
2022-08-14T00:56:56.105Z,7.65
2022-08-14T00:59:28.891Z,6.12
2022-08-14T01:02:00.466Z,7.65
2022-08-14T01:04:51.418Z,7.25
2022-08-14T01:07:04.999Z,7.50
2022-08-14T01:09:37.776Z,7.95
2022-08-14T01:12:10.852Z,7.20
2022-08-14T01:14:44.568Z,7.70
2022-08-14T01:17:15.885Z,7.53
2022-08-14T01:20:06.305Z,7.92
2022-08-14T01:22:37.492Z,8.88
2022-08-14T01:25:11.135Z,8.90
2022-08-14T01:27:56.932Z,8.35
2022-08-14T01:30:16.851Z,9.18
2022-08-14T01:32:51.147Z,8.08
2022-08-14T01:36:05.611Z,8.50
2022-08-14T01:37:56.428Z,8.20
2022-08-14T01:40:36.388Z,9.80
2022-08-14T01:43:14.791Z,9.30
2022-08-14T01:46:05.685Z,8.38
2022-08-14T01:48:20.812Z,9.03
2022-08-14T01:50:52.132Z,8.98
2022-08-14T01:53:25.269Z,8.03
2022-08-14T01:56:05.334Z,9.05
2022-08-14T01:58:37.964Z,8.90
2022-08-14T02:03:42.802Z,8.85
2022-08-14T02:06:33.437Z,8.28
2022-08-14T02:08:52.674Z,8.43
2022-08-14T02:11:22.891Z,9.00
2022-08-14T02:14:07.005Z,9.25
2022-08-14T02:16:41.463Z,9.05
2022-08-14T02:19:15.141Z,8.93
2022-08-14T02:21:50.483Z,9.13
2022-08-14T02:24:39.618Z,9.58
2022-08-14T02:26:58.337Z,9.85
2022-08-14T02:29:27.216Z,9.48
2022-08-14T02:34:32.578Z,10.90
2022-08-14T02:37:07.001Z,11.45
2022-08-14T02:42:13.384Z,12.00
2022-08-14T02:44:42.287Z,11.30
2022-08-14T02:47:19.285Z,12.50
2022-08-14T02:49:54.799Z,12.40
2022-08-14T02:52:56.264Z,12.55
2022-08-14T02:54:55.947Z,12.00
2022-08-14T02:57:39.746Z,11.83
2022-08-14T02:59:58.315Z,12.33
2022-08-14T03:02:33.576Z,10.85
2022-08-14T03:05:02.019Z,12.23
2022-08-14T03:07:36.007Z,13.00
2022-08-14T03:10:25.850Z,12.43
2022-08-14T03:12:39.189Z,12.95
2022-08-14T03:15:14.365Z,14.00
2022-08-14T03:17:57.556Z,13.15
2022-08-14T03:20:15.165Z,14.38
2022-08-14T03:22:50.945Z,13.70
2022-08-14T03:25:23.603Z,13.08
2022-08-14T03:27:58.490Z,12.63
2022-08-14T03:30:39.444Z,13.38
2022-08-14T03:33:01.281Z,12.93
2022-08-14T03:35:40.370Z,14.60
2022-08-14T03:39:10.597Z,14.23
2022-08-14T03:40:41.747Z,14.80
2022-08-14T03:43:12.292Z,14.43
2022-08-14T03:45:48.061Z,13.28
2022-08-14T03:50:53.491Z,13.50
2022-08-14T03:53:26.097Z,13.83
2022-08-14T03:55:57.007Z,12.20
2022-08-14T03:58:36.673Z,12.80
2022-08-14T04:00:57.515Z,13.55
2022-08-14T04:03:27.583Z,12.70
2022-08-14T04:05:59.951Z,12.98
2022-08-14T04:08:31.672Z,13.72
2022-08-14T04:11:02.994Z,15.57
2022-08-14T04:13:36.163Z,14.73
2022-08-14T04:16:13.085Z,13.93
2022-08-14T04:18:46.280Z,13.10
2022-08-14T04:21:22.815Z,13.65
2022-08-14T04:23:57.995Z,14.63
2022-08-14T04:26:43.178Z,17.15
2022-08-14T04:29:14.314Z,15.58
2022-08-14T04:32:58.020Z,18.90
2022-08-14T04:34:06.588Z,16.32
2022-08-14T04:36:42.268Z,18.12
2022-08-14T04:39:30.834Z,16.05
2022-08-14T04:42:24.839Z,15.63
2022-08-14T04:44:55.718Z,14.25
2022-08-14T04:47:46.390Z,15.43
2022-08-14T04:50:14.772Z,15.88
2022-08-14T04:52:44.196Z,16.07
2022-08-14T04:55:14.609Z,14.60
2022-08-14T04:57:43.937Z,15.23
2022-08-14T05:00:16.300Z,15.30
2022-08-14T05:02:45.991Z,15.15
2022-08-14T05:05:16.829Z,15.25
2022-08-14T05:07:54.577Z,15.08
2022-08-14T05:10:22.113Z,17.10
2022-08-14T05:13:24.384Z,19.10
2022-08-14T05:15:21.309Z,21.07
2022-08-14T05:21:55.938Z,16.35
2022-08-14T05:22:56.141Z,15.72
2022-08-14T05:25:24.918Z,16.10
2022-08-14T05:27:57.735Z,15.90
2022-08-14T05:30:28.632Z,15.78
2022-08-14T05:32:59.509Z,16.50
2022-08-14T05:35:29.031Z,16.07
2022-08-14T05:38:01.823Z,15.38
2022-08-14T05:40:32.941Z,16.50
2022-08-14T05:43:03.166Z,15.95
2022-08-14T05:45:35.827Z,15.43
2022-08-14T05:48:07.523Z,14.98
2022-08-14T05:50:38.537Z,15.10
2022-08-14T05:53:09.663Z,14.58
2022-08-14T05:55:42.745Z,13.83
2022-08-14T05:58:10.279Z,14.70
2022-08-14T06:00:42.168Z,14.85
2022-08-14T06:03:15.673Z,14.50
2022-08-14T06:05:46.869Z,15.10
2022-08-14T06:08:36.615Z,14.73
2022-08-14T06:11:06.197Z,15.68
2022-08-14T06:13:45.197Z,15.55
2022-08-14T06:16:11.895Z,15.28
2022-08-14T06:18:41.336Z,16.20
2022-08-14T06:21:12.952Z,16.23
2022-08-14T06:23:43.098Z,16.10
2022-08-14T06:26:12.406Z,17.20
2022-08-14T06:28:45.633Z,16.82
2022-08-14T06:31:12.687Z,16.95
2022-08-14T06:35:02.717Z,16.87
2022-08-14T06:36:18.385Z,16.67
2022-08-14T06:38:45.977Z,17.15
2022-08-14T06:41:20.847Z,16.65
2022-08-14T06:43:48.227Z,16.12
2022-08-14T06:46:32.585Z,15.50
2022-08-14T06:48:50.980Z,16.40
2022-08-14T06:51:21.074Z,15.20
2022-08-14T06:53:51.581Z,15.68
2022-08-14T06:56:21.477Z,15.53
2022-08-14T06:58:51.334Z,15.28
2022-08-14T07:01:38.562Z,15.50
2022-08-14T07:04:26.466Z,15.43
2022-08-14T07:06:59.068Z,15.55
2022-08-14T07:09:44.234Z,14.77
2022-08-14T07:11:59.743Z,14.25
2022-08-14T07:14:30.699Z,14.20
2022-08-14T07:17:00.081Z,14.30
2022-08-14T07:19:30.485Z,14.05
2022-08-14T07:21:59.781Z,14.25
2022-08-14T07:24:31.409Z,13.25
2022-08-14T07:27:01.028Z,13.90
2022-08-14T07:29:30.284Z,13.20
2022-08-14T07:31:59.687Z,12.82
2022-08-14T07:34:40.544Z,13.00
2022-08-14T07:37:01.303Z,13.95
2022-08-14T07:39:30.823Z,12.88
2022-08-14T07:42:01.966Z,12.78
2022-08-14T07:44:45.952Z,12.05
2022-08-14T07:47:02.214Z,12.47
2022-08-14T07:49:34.189Z,11.63
2022-08-14T07:52:04.926Z,12.88
2022-08-14T07:54:34.187Z,11.43
2022-08-14T07:57:06.584Z,11.95
2022-08-14T07:59:40.845Z,12.50
2022-08-14T08:02:07.311Z,11.65
2022-08-14T08:04:40.705Z,13.98
2022-08-14T08:07:12.286Z,12.63
2022-08-14T08:09:45.697Z,12.23
2022-08-14T08:12:16.193Z,12.07
2022-08-14T08:14:56.872Z,10.72
2022-08-14T08:17:16.746Z,11.28
2022-08-14T08:19:51.426Z,10.63
2022-08-14T08:22:22.081Z,11.43
2022-08-14T08:24:51.344Z,10.82
2022-08-14T08:27:21.383Z,9.53
2022-08-14T08:29:51.309Z,9.60
2022-08-14T08:32:20.633Z,10.03
2022-08-14T08:34:51.883Z,9.43
2022-08-14T08:37:22.102Z,9.80
2022-08-14T08:40:01.376Z,10.38
2022-08-14T08:42:31.661Z,9.80
2022-08-14T08:44:58.381Z,10.43
2022-08-14T08:47:29.278Z,11.05
2022-08-14T08:49:59.702Z,10.10
2022-08-14T08:52:31.771Z,13.62
2022-08-14T08:55:04.518Z,10.63
2022-08-14T08:57:39.965Z,9.20
2022-08-14T09:00:24.495Z,9.00
2022-08-14T09:02:57.129Z,9.98
2022-08-14T09:05:27.343Z,9.08
2022-08-14T09:07:58.882Z,10.28
2022-08-14T09:10:28.198Z,8.40
2022-08-14T09:13:00.409Z,9.28
2022-08-14T09:15:42.430Z,8.05
2022-08-14T09:18:01.906Z,8.58
2022-08-14T09:20:32.188Z,7.90
2022-08-14T09:23:02.054Z,9.25
2022-08-14T09:25:59.650Z,8.15
2022-08-14T09:28:02.970Z,7.55
2022-08-14T09:30:35.117Z,7.62
2022-08-14T09:33:11.721Z,8.23
2022-08-14T09:36:15.104Z,7.35
2022-08-14T09:38:54.848Z,7.37
2022-08-14T09:42:21.827Z,7.90
2022-08-14T09:44:45.689Z,8.08
2022-08-14T09:47:16.473Z,8.93
2022-08-14T09:49:52.271Z,8.13
2022-08-14T09:52:23.718Z,8.28
2022-08-14T09:54:49.949Z,7.78
2022-08-14T09:57:29.050Z,7.25
2022-08-14T09:59:58.759Z,7.62
2022-08-14T10:02:32.361Z,8.48
2022-08-14T10:05:10.179Z,6.72
2022-08-14T10:07:49.582Z,6.70
2022-08-14T10:10:35.577Z,6.50
2022-08-14T10:13:24.591Z,6.60
2022-08-14T10:15:57.005Z,6.50
2022-08-14T10:18:28.873Z,6.22
2022-08-14T10:21:00.876Z,6.65
2022-08-14T10:23:43.073Z,5.92
2022-08-14T10:26:22.684Z,5.08
2022-08-14T10:29:17.840Z,4.97
2022-08-14T10:31:25.477Z,4.62
2022-08-14T10:34:04.194Z,5.40
2022-08-14T10:36:40.946Z,4.50
2022-08-14T10:39:21.179Z,4.47
2022-08-14T10:44:24.865Z,5.00
2022-08-14T10:47:39.224Z,4.80
2022-08-14T10:49:31.322Z,4.90
2022-08-14T10:54:44.177Z,4.90
2022-08-14T10:57:24.400Z,4.92
2022-08-14T10:59:59.612Z,5.15
2022-08-14T11:02:54.536Z,5.50
2022-08-14T11:05:12.927Z,5.20
2022-08-14T11:08:00.814Z,5.45
2022-08-14T11:10:45.254Z,4.70
2022-08-14T11:13:19.711Z,4.80
2022-08-14T11:15:50.549Z,4.65
2022-08-14T11:18:30.237Z,4.85
2022-08-14T11:20:55.510Z,4.50
2022-08-14T11:23:37.840Z,4.90
2022-08-14T11:26:07.085Z,4.60
2022-08-14T11:28:48.003Z,4.53
2022-08-14T11:31:16.732Z,4.40
2022-08-14T11:33:52.655Z,4.35
2022-08-14T11:37:02.797Z,3.77
2022-08-14T11:38:58.283Z,3.90
2022-08-14T11:41:28.064Z,3.80
2022-08-14T11:43:58.338Z,3.75
2022-08-14T11:46:30.816Z,3.50
2022-08-14T11:49:04.922Z,3.50
2022-08-14T11:51:50.774Z,3.87
2022-08-14T11:54:06.317Z,3.83
2022-08-14T11:56:41.992Z,3.77
2022-08-14T11:59:18.037Z,3.83
2022-08-14T12:01:48.751Z,3.80
2022-08-14T12:06:53.668Z,3.62
2022-08-14T12:09:34.391Z,3.75
2022-08-14T12:12:16.300Z,3.67
2022-08-14T12:14:59.993Z,3.30
2022-08-14T12:17:31.943Z,3.30
2022-08-14T12:20:05.974Z,2.90
2022-08-14T12:22:37.305Z,3.10
2022-08-14T12:25:11.326Z,3.30
2022-08-14T12:27:52.407Z,3.10
2022-08-14T12:30:42.562Z,3.20
2022-08-14T12:33:09.611Z,3.40
2022-08-14T12:35:42.641Z,3.08
2022-08-14T12:38:19.515Z,3.20
2022-08-14T12:40:50.701Z,3.52
2022-08-14T12:43:21.887Z,3.10
2022-08-14T12:48:31.580Z,3.60
2022-08-14T12:50:53.240Z,3.62
2022-08-14T12:53:22.626Z,3.80
2022-08-14T12:56:22.286Z,6.03
2022-08-14T12:58:51.584Z,3.50
2022-08-14T13:01:17.207Z,4.35
2022-08-14T13:03:37.631Z,4.10
2022-08-14T13:06:10.156Z,4.42
2022-08-14T13:11:14.990Z,4.20
2022-08-14T13:13:45.997Z,4.45
2022-08-14T13:16:20.991Z,4.15
2022-08-14T13:18:48.126Z,6.03
2022-08-14T13:21:19.143Z,4.50
2022-08-14T13:23:50.168Z,4.20
2022-08-14T13:26:19.894Z,4.50
2022-08-14T13:29:02.669Z,4.33
2022-08-14T13:31:24.621Z,4.35
2022-08-14T13:33:56.331Z,4.20
2022-08-14T13:36:54.915Z,4.35
2022-08-14T13:39:00.831Z,4.28
2022-08-14T13:41:31.671Z,4.40
2022-08-14T13:44:01.739Z,4.00
2022-08-14T13:46:33.051Z,4.28
2022-08-14T13:49:02.473Z,4.22
2022-08-14T13:51:34.636Z,4.12
2022-08-14T13:54:10.811Z,4.33
2022-08-14T13:56:40.560Z,4.30
2022-08-14T13:59:10.550Z,4.50
2022-08-14T14:01:43.248Z,4.20
2022-08-14T14:04:18.839Z,4.20
2022-08-14T14:06:49.228Z,4.03
2022-08-14T14:09:21.653Z,4.35
2022-08-14T14:11:53.020Z,4.20
2022-08-14T14:14:44.567Z,4.10
2022-08-14T14:16:56.041Z,3.90
2022-08-14T14:19:27.095Z,4.30
2022-08-14T14:21:58.695Z,4.45
2022-08-14T14:24:34.804Z,4.60
2022-08-14T14:27:13.622Z,4.40
2022-08-14T14:29:34.639Z,4.60
2022-08-14T14:32:06.383Z,4.60
2022-08-14T14:34:39.378Z,4.65
2022-08-14T14:37:12.218Z,4.80
2022-08-14T14:40:53.622Z,4.83
2022-08-14T14:42:18.333Z,4.80
2022-08-14T14:44:46.650Z,4.40
2022-08-14T14:47:22.756Z,4.85
2022-08-14T14:49:55.192Z,4.65
2022-08-14T14:52:27.144Z,4.78
2022-08-14T14:54:53.936Z,4.85
2022-08-14T14:57:26.691Z,4.92
2022-08-14T15:02:29.992Z,4.97
2022-08-14T15:04:59.257Z,4.72
2022-08-14T15:07:29.791Z,5.67
2022-08-14T15:09:59.555Z,6.37
2022-08-14T15:12:52.164Z,5.80
2022-08-14T15:15:08.070Z,5.10
2022-08-14T15:17:35.328Z,5.72
2022-08-14T15:20:07.045Z,4.90
2022-08-14T15:22:43.574Z,4.70
2022-08-14T15:25:14.719Z,4.72
2022-08-14T15:27:47.379Z,4.50
2022-08-14T15:30:23.995Z,4.47
2022-08-14T15:32:53.231Z,5.40
2022-08-14T15:35:25.627Z,5.10
2022-08-14T15:37:55.761Z,4.80
2022-08-14T15:40:25.745Z,4.80
2022-08-14T15:42:55.022Z,5.00
2022-08-14T15:45:25.412Z,4.30
2022-08-14T15:47:56.436Z,4.70
2022-08-14T15:50:28.442Z,4.53
2022-08-14T15:52:57.913Z,4.53
2022-08-14T15:55:27.188Z,4.78
2022-08-14T15:58:03.180Z,4.83
2022-08-14T16:00:49.413Z,4.67
2022-08-14T16:03:18.377Z,4.67
2022-08-14T16:05:49.466Z,4.97
2022-08-14T16:08:29.616Z,4.62
2022-08-14T16:10:50.050Z,4.80
2022-08-14T16:13:39.584Z,5.55
2022-08-14T16:15:53.775Z,5.17
2022-08-14T16:18:24.263Z,5.20
2022-08-14T16:20:55.208Z,4.70
2022-08-14T16:23:26.612Z,4.90
2022-08-14T16:25:59.483Z,5.15
2022-08-14T16:28:32.085Z,5.10
2022-08-14T16:31:02.151Z,8.23
2022-08-14T16:34:00.051Z,5.30
2022-08-14T16:36:05.057Z,5.37
2022-08-14T16:38:46.209Z,4.85
2022-08-14T16:41:17.247Z,5.00
2022-08-14T16:43:47.683Z,4.65
2022-08-14T16:46:21.999Z,4.83
2022-08-14T16:48:57.566Z,5.00
2022-08-14T16:51:22.924Z,5.08
2022-08-14T16:53:54.751Z,5.00
2022-08-14T16:56:28.155Z,5.80
2022-08-14T16:59:14.337Z,5.10
2022-08-14T17:01:45.971Z,5.78
2022-08-14T17:04:24.893Z,5.50
2022-08-14T17:06:52.839Z,5.45
2022-08-14T17:09:32.372Z,4.75
2022-08-14T17:12:07.518Z,5.10
2022-08-14T17:14:55.291Z,5.28
2022-08-14T17:17:43.629Z,5.20
2022-08-14T17:20:54.503Z,5.40
2022-08-14T17:22:55.972Z,6.80
2022-08-14T17:25:30.101Z,6.47
2022-08-14T17:30:56.790Z,5.55
2022-08-14T17:33:33.658Z,6.05
2022-08-14T17:36:20.791Z,5.42
2022-08-14T17:39:07.955Z,5.08
2022-08-14T17:41:43.331Z,5.12
2022-08-14T17:44:21.380Z,5.45
2022-08-14T17:47:01.926Z,5.28
2022-08-14T17:49:40.436Z,5.30
2022-08-14T17:52:17.174Z,5.10
2022-08-14T17:54:59.023Z,6.50
2022-08-14T17:57:30.350Z,5.12
2022-08-14T18:00:01.805Z,5.42
2022-08-14T18:02:35.414Z,5.37
2022-08-14T18:05:08.223Z,5.90
2022-08-14T18:07:59.625Z,6.00
2022-08-14T18:10:52.720Z,6.00
2022-08-14T18:12:43.975Z,6.47
2022-08-14T18:15:18.735Z,6.70
2022-08-14T18:17:53.899Z,6.33
2022-08-14T18:21:39.577Z,6.62
2022-08-14T18:22:56.501Z,6.58
2022-08-14T18:25:29.198Z,6.67
2022-08-14T18:27:59.442Z,7.25
2022-08-14T18:30:36.468Z,6.40
2022-08-14T18:33:04.360Z,7.00
2022-08-14T18:35:56.804Z,6.95
2022-08-14T18:38:55.210Z,7.22
2022-08-14T18:40:59.419Z,7.25
2022-08-14T18:43:44.694Z,6.83
2022-08-14T18:46:59.912Z,7.15
2022-08-14T18:48:50.941Z,7.10
2022-08-14T18:51:20.536Z,7.28
2022-08-14T18:53:55.706Z,6.78
2022-08-14T18:57:00.217Z,6.90
2022-08-14T18:59:35.454Z,6.92
2022-08-14T19:02:32.157Z,7.30
2022-08-14T19:05:03.074Z,6.97
2022-08-14T19:07:33.906Z,7.28
2022-08-14T19:10:16.838Z,7.12
2022-08-14T19:13:01.274Z,7.12
2022-08-14T19:15:36.377Z,7.37
2022-08-14T19:18:26.406Z,7.12
2022-08-14T19:21:00.100Z,12.43
2022-08-14T19:23:43.266Z,7.87
2022-08-14T19:26:36.075Z,8.88
2022-08-14T19:28:48.527Z,8.65
2022-08-14T19:31:42.007Z,7.50
2022-08-14T19:34:06.860Z,7.42
2022-08-14T19:37:05.965Z,7.62
2022-08-14T19:39:55.069Z,7.50
2022-08-14T19:42:28.476Z,8.15
2022-08-14T19:44:58.798Z,8.18
2022-08-14T19:47:41.570Z,7.45
2022-08-14T19:50:38.218Z,8.03
2022-08-14T19:52:42.059Z,8.08
2022-08-14T19:55:18.187Z,8.30
2022-08-14T19:57:57.878Z,7.83
2022-08-14T20:00:29.272Z,8.10
2022-08-14T20:02:53.460Z,7.60
2022-08-14T20:05:24.671Z,7.83
2022-08-14T20:09:05.532Z,8.05
2022-08-14T20:11:12.582Z,8.00
2022-08-14T20:13:12.542Z,8.00
2022-08-14T20:15:47.335Z,7.80
2022-08-14T20:18:45.936Z,7.97
2022-08-14T20:20:46.298Z,15.98
2022-08-14T20:23:19.008Z,14.35
2022-08-14T20:25:56.541Z,19.25
2022-08-14T20:28:29.667Z,13.22
2022-08-14T20:31:19.693Z,9.18
2022-08-14T20:34:19.219Z,9.18
2022-08-14T20:36:41.304Z,7.62
2022-08-14T20:39:15.063Z,8.90
2022-08-14T20:41:48.945Z,8.75
2022-08-14T20:44:40.153Z,8.70
2022-08-14T20:47:11.951Z,9.23
2022-08-14T20:49:43.083Z,9.30
2022-08-14T20:52:19.302Z,9.63
2022-08-14T20:54:50.439Z,10.53
2022-08-14T20:57:17.925Z,9.80
2022-08-14T20:59:53.701Z,11.10
2022-08-14T21:02:50.217Z,11.85
2022-08-14T21:05:17.233Z,11.63
2022-08-14T21:07:44.400Z,12.20
2022-08-14T21:10:34.216Z,11.50
2022-08-14T21:13:26.725Z,11.88
2022-08-14T21:15:21.211Z,12.43
2022-08-14T21:17:51.678Z,11.75
2022-08-14T21:20:25.593Z,12.63
2022-08-14T21:22:52.131Z,12.60
2022-08-14T21:25:22.016Z,11.63
2022-08-14T21:27:56.784Z,12.50
2022-08-14T21:30:51.254Z,11.68
2022-08-14T21:32:58.189Z,11.65
2022-08-14T21:35:25.862Z,11.70
2022-08-14T21:37:55.642Z,11.05
2022-08-14T21:40:42.204Z,11.30
2022-08-14T21:43:02.382Z,11.43
2022-08-14T21:45:35.444Z,11.12
2022-08-14T21:48:10.515Z,10.70
2022-08-14T21:50:39.819Z,10.98
2022-08-14T21:53:06.727Z,10.18
2022-08-14T21:55:37.386Z,10.30
2022-08-14T21:58:52.332Z,10.10
2022-08-14T22:00:42.403Z,10.25
2022-08-14T22:03:19.154Z,11.08
2022-08-14T22:05:52.009Z,10.72
2022-08-14T22:08:26.876Z,10.75
2022-08-14T22:10:54.063Z,10.20
2022-08-14T22:13:32.479Z,9.78
2022-08-14T22:16:02.381Z,10.55
2022-08-14T22:18:31.267Z,11.38
2022-08-14T22:21:05.587Z,11.25
2022-08-14T22:23:35.496Z,11.28
2022-08-14T22:26:07.848Z,11.10
2022-08-14T22:28:38.694Z,10.18
2022-08-14T22:31:18.313Z,10.20
2022-08-14T22:33:44.333Z,10.00
2022-08-14T22:36:42.286Z,10.08
2022-08-14T22:39:10.991Z,9.88
2022-08-14T22:41:42.437Z,10.23
2022-08-14T22:44:16.622Z,10.15
2022-08-14T22:46:46.490Z,10.63
2022-08-14T22:50:29.441Z,10.53
2022-08-14T22:51:48.929Z,9.98
2022-08-14T22:54:52.193Z,10.53
2022-08-14T22:56:49.892Z,9.93
2022-08-14T22:59:20.548Z,10.68
2022-08-14T23:01:58.710Z,10.13
2022-08-14T23:04:35.729Z,10.48
2022-08-14T23:09:42.875Z,9.80
2022-08-14T23:12:28.621Z,10.00
2022-08-14T23:14:44.903Z,9.95
2022-08-14T23:17:17.604Z,10.70
2022-08-14T23:19:48.265Z,10.43
2022-08-14T23:22:21.583Z,10.68
2022-08-14T23:24:56.819Z,12.10
2022-08-14T23:27:31.930Z,13.25
2022-08-14T23:29:59.175Z,12.90
2022-08-14T23:32:30.200Z,13.32
2022-08-14T23:35:01.045Z,13.25
2022-08-14T23:37:31.988Z,13.28
2022-08-14T23:40:04.985Z,12.25
2022-08-14T23:42:40.934Z,12.68
2022-08-14T23:45:15.605Z,12.55
2022-08-14T23:47:52.094Z,12.37
2022-08-14T23:50:34.145Z,12.45
2022-08-14T23:53:06.872Z,12.13
2022-08-14T23:55:25.094Z,11.90
2022-08-14T23:57:57.498Z,11.35
